sensor_id;sensor_type;location;lat;lon;timestamp;temperature;humidity
14140;DHT22;7150;53.514;9.988;2023-06-22T00:02:17;26.50;73.40
14140;DHT22;7150;53.514;9.988;2023-06-22T00:04:43;26.50;73.40
14140;DHT22;7150;53.514;9.988;2023-06-22T00:07:08;26.50;73.60
14140;DHT22;7150;53.514;9.988;2023-06-22T00:09:34;26.50;73.70
14140;DHT22;7150;53.514;9.988;2023-06-22T00:11:59;26.40;73.80
14140;DHT22;7150;53.514;9.988;2023-06-22T00:14:25;26.40;73.90
14140;DHT22;7150;53.514;9.988;2023-06-22T00:16:50;26.40;73.90
14140;DHT22;7150;53.514;9.988;2023-06-22T00:19:20;26.40;74.00
14140;DHT22;7150;53.514;9.988;2023-06-22T00:21:47;26.40;74.20
14140;DHT22;7150;53.514;9.988;2023-06-22T00:24:13;26.40;74.40
14140;DHT22;7150;53.514;9.988;2023-06-22T00:26:39;26.40;74.50
14140;DHT22;7150;53.514;9.988;2023-06-22T00:29:04;26.40;74.60
14140;DHT22;7150;53.514;9.988;2023-06-22T00:31:30;26.40;74.60
14140;DHT22;7150;53.514;9.988;2023-06-22T00:33:55;26.30;74.70
14140;DHT22;7150;53.514;9.988;2023-06-22T00:36:20;26.30;74.80
14140;DHT22;7150;53.514;9.988;2023-06-22T00:38:46;26.30;74.90
14140;DHT22;7150;53.514;9.988;2023-06-22T00:41:11;26.30;75.70
14140;DHT22;7150;53.514;9.988;2023-06-22T00:43:37;26.30;75.00
14140;DHT22;7150;53.514;9.988;2023-06-22T00:46:02;26.30;75.20
14140;DHT22;7150;53.514;9.988;2023-06-22T00:48:28;26.30;75.40
14140;DHT22;7150;53.514;9.988;2023-06-22T00:50:54;26.30;75.60
14140;DHT22;7150;53.514;9.988;2023-06-22T00:53:21;26.30;75.70
14140;DHT22;7150;53.514;9.988;2023-06-22T00:55:46;26.20;75.80
14140;DHT22;7150;53.514;9.988;2023-06-22T00:58:13;26.20;76.00
14140;DHT22;7150;53.514;9.988;2023-06-22T01:00:39;26.10;76.10
14140;DHT22;7150;53.514;9.988;2023-06-22T01:03:05;26.00;76.30
14140;DHT22;7150;53.514;9.988;2023-06-22T01:05:35;26.00;76.50
14140;DHT22;7150;53.514;9.988;2023-06-22T01:13:54;26.00;77.10
14140;DHT22;7150;53.514;9.988;2023-06-22T01:16:33;26.00;77.20
14140;DHT22;7150;53.514;9.988;2023-06-22T01:21:49;25.90;77.70
14140;DHT22;7150;53.514;9.988;2023-06-22T01:24:30;25.90;77.90
14140;DHT22;7150;53.514;9.988;2023-06-22T01:27:09;25.90;78.00
14140;DHT22;7150;53.514;9.988;2023-06-22T01:29:40;25.90;78.30
14140;DHT22;7150;53.514;9.988;2023-06-22T01:32:08;25.90;78.60
14140;DHT22;7150;53.514;9.988;2023-06-22T01:34:35;25.90;78.70
14140;DHT22;7150;53.514;9.988;2023-06-22T01:37:02;25.90;78.90
14140;DHT22;7150;53.514;9.988;2023-06-22T01:39:29;25.90;79.00
14140;DHT22;7150;53.514;9.988;2023-06-22T01:41:55;25.90;79.20
14140;DHT22;7150;53.514;9.988;2023-06-22T01:44:22;25.90;79.30
14140;DHT22;7150;53.514;9.988;2023-06-22T01:46:50;25.90;79.50
14140;DHT22;7150;53.514;9.988;2023-06-22T01:49:16;25.80;79.60
14140;DHT22;7150;53.514;9.988;2023-06-22T01:51:42;25.80;79.70
14140;DHT22;7150;53.514;9.988;2023-06-22T01:54:07;25.80;79.90
14140;DHT22;7150;53.514;9.988;2023-06-22T01:56:35;25.80;80.00
14140;DHT22;7150;53.514;9.988;2023-06-22T01:59:14;25.80;80.20
14140;DHT22;7150;53.514;9.988;2023-06-22T02:05:06;25.80;80.30
14140;DHT22;7150;53.514;9.988;2023-06-22T02:07:41;25.70;80.50
14140;DHT22;7150;53.514;9.988;2023-06-22T02:10:10;25.80;80.70
14140;DHT22;7150;53.514;9.988;2023-06-22T02:12:39;25.70;80.80
14140;DHT22;7150;53.514;9.988;2023-06-22T02:15:06;25.70;80.90
14140;DHT22;7150;53.514;9.988;2023-06-22T02:17:33;25.70;80.90
14140;DHT22;7150;53.514;9.988;2023-06-22T02:19:59;25.70;81.00
14140;DHT22;7150;53.514;9.988;2023-06-22T02:22:24;25.70;81.00
14140;DHT22;7150;53.514;9.988;2023-06-22T02:24:50;25.70;81.10
14140;DHT22;7150;53.514;9.988;2023-06-22T02:27:15;25.70;81.20
14140;DHT22;7150;53.514;9.988;2023-06-22T02:29:41;25.70;81.40
14140;DHT22;7150;53.514;9.988;2023-06-22T02:32:06;25.60;81.50
14140;DHT22;7150;53.514;9.988;2023-06-22T02:34:32;25.60;81.70
14140;DHT22;7150;53.514;9.988;2023-06-22T02:36:59;25.60;82.00
14140;DHT22;7150;53.514;9.988;2023-06-22T02:39:26;25.50;82.00
14140;DHT22;7150;53.514;9.988;2023-06-22T02:41:53;25.60;82.10
14140;DHT22;7150;53.514;9.988;2023-06-22T02:44:19;25.50;82.10
14140;DHT22;7150;53.514;9.988;2023-06-22T02:46:46;25.60;82.20
14140;DHT22;7150;53.514;9.988;2023-06-22T02:49:11;25.50;82.00
14140;DHT22;7150;53.514;9.988;2023-06-22T02:51:44;25.60;82.20
14140;DHT22;7150;53.514;9.988;2023-06-22T02:54:10;25.50;82.10
14140;DHT22;7150;53.514;9.988;2023-06-22T02:56:35;25.50;82.10
14140;DHT22;7150;53.514;9.988;2023-06-22T02:59:02;25.50;82.20
14140;DHT22;7150;53.514;9.988;2023-06-22T03:01:28;25.50;82.30
14140;DHT22;7150;53.514;9.988;2023-06-22T03:03:56;25.50;82.40
14140;DHT22;7150;53.514;9.988;2023-06-22T03:06:21;25.50;82.50
14140;DHT22;7150;53.514;9.988;2023-06-22T03:08:58;25.50;82.60
14140;DHT22;7150;53.514;9.988;2023-06-22T03:11:24;25.40;82.60
14140;DHT22;7150;53.514;9.988;2023-06-22T03:13:49;25.40;82.60
14140;DHT22;7150;53.514;9.988;2023-06-22T03:16:17;25.40;82.60
14140;DHT22;7150;53.514;9.988;2023-06-22T03:18:43;25.50;82.60
14140;DHT22;7150;53.514;9.988;2023-06-22T03:21:08;25.40;82.60
14140;DHT22;7150;53.514;9.988;2023-06-22T03:23:34;25.40;83.10
14140;DHT22;7150;53.514;9.988;2023-06-22T03:25:59;25.40;82.70
14140;DHT22;7150;53.514;9.988;2023-06-22T03:28:25;25.30;82.70
14140;DHT22;7150;53.514;9.988;2023-06-22T03:30:50;25.40;82.90
14140;DHT22;7150;53.514;9.988;2023-06-22T03:33:16;25.40;82.80
14140;DHT22;7150;53.514;9.988;2023-06-22T03:35:41;25.40;82.90
14140;DHT22;7150;53.514;9.988;2023-06-22T03:38:07;25.40;83.00
14140;DHT22;7150;53.514;9.988;2023-06-22T03:40:32;25.40;83.10
14140;DHT22;7150;53.514;9.988;2023-06-22T03:42:58;25.40;83.20
14140;DHT22;7150;53.514;9.988;2023-06-22T03:45:23;25.40;83.30
14140;DHT22;7150;53.514;9.988;2023-06-22T03:47:49;25.40;83.40
14140;DHT22;7150;53.514;9.988;2023-06-22T03:50:14;25.30;83.40
14140;DHT22;7150;53.514;9.988;2023-06-22T03:52:40;25.30;83.50
14140;DHT22;7150;53.514;9.988;2023-06-22T03:55:07;25.40;83.60
14140;DHT22;7150;53.514;9.988;2023-06-22T03:57:32;25.40;83.70
14140;DHT22;7150;53.514;9.988;2023-06-22T03:59:58;25.40;83.90
14140;DHT22;7150;53.514;9.988;2023-06-22T04:02:24;25.40;84.00
14140;DHT22;7150;53.514;9.988;2023-06-22T04:04:49;25.30;84.00
14140;DHT22;7150;53.514;9.988;2023-06-22T04:07:15;25.40;84.20
14140;DHT22;7150;53.514;9.988;2023-06-22T04:09:40;25.40;84.30
14140;DHT22;7150;53.514;9.988;2023-06-22T04:12:06;25.40;84.40
14140;DHT22;7150;53.514;9.988;2023-06-22T04:14:32;25.40;84.50
14140;DHT22;7150;53.514;9.988;2023-06-22T04:16:58;25.40;84.60
14140;DHT22;7150;53.514;9.988;2023-06-22T04:19:23;25.40;84.70
14140;DHT22;7150;53.514;9.988;2023-06-22T04:21:49;25.40;84.80
14140;DHT22;7150;53.514;9.988;2023-06-22T04:24:14;25.40;84.90
14140;DHT22;7150;53.514;9.988;2023-06-22T04:26:40;25.40;84.90
14140;DHT22;7150;53.514;9.988;2023-06-22T04:29:07;25.40;84.90
14140;DHT22;7150;53.514;9.988;2023-06-22T04:31:34;25.40;84.90
14140;DHT22;7150;53.514;9.988;2023-06-22T04:34:04;25.40;84.90
14140;DHT22;7150;53.514;9.988;2023-06-22T04:36:40;25.40;84.80
14140;DHT22;7150;53.514;9.988;2023-06-22T04:39:08;25.50;84.40
14140;DHT22;7150;53.514;9.988;2023-06-22T04:41:35;25.40;84.30
14140;DHT22;7150;53.514;9.988;2023-06-22T04:44:15;25.40;84.30
14140;DHT22;7150;53.514;9.988;2023-06-22T04:46:50;25.40;84.20
14140;DHT22;7150;53.514;9.988;2023-06-22T04:49:20;25.40;84.10
14140;DHT22;7150;53.514;9.988;2023-06-22T04:51:45;25.40;83.90
14140;DHT22;7150;53.514;9.988;2023-06-22T04:54:11;25.40;83.70
14140;DHT22;7150;53.514;9.988;2023-06-22T04:56:36;25.40;83.50
14140;DHT22;7150;53.514;9.988;2023-06-22T04:59:02;25.50;83.40
14140;DHT22;7150;53.514;9.988;2023-06-22T05:01:28;25.50;83.10
14140;DHT22;7150;53.514;9.988;2023-06-22T05:03:56;25.50;82.90
14140;DHT22;7150;53.514;9.988;2023-06-22T05:06:23;25.50;82.70
14140;DHT22;7150;53.514;9.988;2023-06-22T05:08:53;25.50;82.70
14140;DHT22;7150;53.514;9.988;2023-06-22T05:11:23;25.50;82.60
14140;DHT22;7150;53.514;9.988;2023-06-22T05:13:49;25.50;82.70
14140;DHT22;7150;53.514;9.988;2023-06-22T05:16:14;25.50;82.60
14140;DHT22;7150;53.514;9.988;2023-06-22T05:18:40;25.50;82.50
14140;DHT22;7150;53.514;9.988;2023-06-22T05:21:07;25.50;82.40
14140;DHT22;7150;53.514;9.988;2023-06-22T05:23:32;25.50;82.30
14140;DHT22;7150;53.514;9.988;2023-06-22T05:25:58;25.50;82.50
14140;DHT22;7150;53.514;9.988;2023-06-22T05:28:23;25.50;82.60
14140;DHT22;7150;53.514;9.988;2023-06-22T05:30:49;25.50;82.60
14140;DHT22;7150;53.514;9.988;2023-06-22T05:33:15;25.60;82.50
14140;DHT22;7150;53.514;9.988;2023-06-22T05:35:40;25.60;82.60
14140;DHT22;7150;53.514;9.988;2023-06-22T05:38:07;25.60;82.40
14140;DHT22;7150;53.514;9.988;2023-06-22T05:40:32;25.70;82.20
14140;DHT22;7150;53.514;9.988;2023-06-22T05:42:58;25.70;82.00
14140;DHT22;7150;53.514;9.988;2023-06-22T05:45:25;25.70;81.70
14140;DHT22;7150;53.514;9.988;2023-06-22T05:47:51;25.70;81.60
14140;DHT22;7150;53.514;9.988;2023-06-22T05:50:17;25.80;81.70
14140;DHT22;7150;53.514;9.988;2023-06-22T05:52:42;25.80;81.70
14140;DHT22;7150;53.514;9.988;2023-06-22T05:55:08;25.80;81.90
14140;DHT22;7150;53.514;9.988;2023-06-22T05:57:34;25.80;81.60
14140;DHT22;7150;53.514;9.988;2023-06-22T05:59:59;25.80;81.60
14140;DHT22;7150;53.514;9.988;2023-06-22T06:02:25;25.80;82.10
14140;DHT22;7150;53.514;9.988;2023-06-22T06:04:50;25.90;81.10
14140;DHT22;7150;53.514;9.988;2023-06-22T06:07:18;25.90;81.00
14140;DHT22;7150;53.514;9.988;2023-06-22T06:09:43;25.90;80.80
14140;DHT22;7150;53.514;9.988;2023-06-22T06:12:09;26.00;81.00
14140;DHT22;7150;53.514;9.988;2023-06-22T06:14:34;26.00;81.00
14140;DHT22;7150;53.514;9.988;2023-06-22T06:17:00;26.00;81.00
14140;DHT22;7150;53.514;9.988;2023-06-22T06:19:25;26.10;80.80
14140;DHT22;7150;53.514;9.988;2023-06-22T06:21:51;26.10;80.80
14140;DHT22;7150;53.514;9.988;2023-06-22T06:24:16;26.10;80.80
14140;DHT22;7150;53.514;9.988;2023-06-22T06:26:42;26.20;81.00
14140;DHT22;7150;53.514;9.988;2023-06-22T06:29:07;26.20;80.70
14140;DHT22;7150;53.514;9.988;2023-06-22T06:31:33;26.20;80.50
14140;DHT22;7150;53.514;9.988;2023-06-22T06:33:58;26.30;80.60
14140;DHT22;7150;53.514;9.988;2023-06-22T06:36:24;26.30;80.40
14140;DHT22;7150;53.514;9.988;2023-06-22T06:38:49;26.40;80.50
14140;DHT22;7150;53.514;9.988;2023-06-22T06:41:15;26.50;80.60
14140;DHT22;7150;53.514;9.988;2023-06-22T06:43:41;26.50;80.60
14140;DHT22;7150;53.514;9.988;2023-06-22T06:46:10;26.50;80.60
14140;DHT22;7150;53.514;9.988;2023-06-22T06:48:35;26.50;80.60
14140;DHT22;7150;53.514;9.988;2023-06-22T06:51:01;26.50;80.70
14140;DHT22;7150;53.514;9.988;2023-06-22T06:53:27;26.50;80.60
14140;DHT22;7150;53.514;9.988;2023-06-22T06:55:53;26.50;80.40
14140;DHT22;7150;53.514;9.988;2023-06-22T06:58:19;26.60;80.40
14140;DHT22;7150;53.514;9.988;2023-06-22T07:00:44;26.60;79.90
14140;DHT22;7150;53.514;9.988;2023-06-22T07:03:10;26.60;79.70
14140;DHT22;7150;53.514;9.988;2023-06-22T07:05:36;26.60;79.70
14140;DHT22;7150;53.514;9.988;2023-06-22T07:08:02;26.60;79.70
14140;DHT22;7150;53.514;9.988;2023-06-22T07:10:28;26.60;79.60
14140;DHT22;7150;53.514;9.988;2023-06-22T07:12:54;26.60;79.70
14140;DHT22;7150;53.514;9.988;2023-06-22T07:15:19;26.60;79.70
14140;DHT22;7150;53.514;9.988;2023-06-22T07:17:45;26.60;79.80
14140;DHT22;7150;53.514;9.988;2023-06-22T07:20:11;26.70;80.00
14140;DHT22;7150;53.514;9.988;2023-06-22T07:22:44;26.70;80.00
14140;DHT22;7150;53.514;9.988;2023-06-22T07:25:10;26.70;80.00
14140;DHT22;7150;53.514;9.988;2023-06-22T07:27:43;26.70;80.10
14140;DHT22;7150;53.514;9.988;2023-06-22T07:30:09;26.70;80.80
14140;DHT22;7150;53.514;9.988;2023-06-22T07:32:35;26.70;80.00
14140;DHT22;7150;53.514;9.988;2023-06-22T07:35:01;26.80;80.00
14140;DHT22;7150;53.514;9.988;2023-06-22T07:37:28;26.80;80.10
14140;DHT22;7150;53.514;9.988;2023-06-22T07:39:54;26.80;80.10
14140;DHT22;7150;53.514;9.988;2023-06-22T07:42:24;26.80;80.10
14140;DHT22;7150;53.514;9.988;2023-06-22T07:44:50;26.90;80.00
14140;DHT22;7150;53.514;9.988;2023-06-22T07:47:16;26.90;79.80
14140;DHT22;7150;53.514;9.988;2023-06-22T07:49:43;26.90;79.60
14140;DHT22;7150;53.514;9.988;2023-06-22T07:52:08;27.00;79.50
14140;DHT22;7150;53.514;9.988;2023-06-22T07:54:34;27.00;79.30
14140;DHT22;7150;53.514;9.988;2023-06-22T07:57:00;27.00;79.30
14140;DHT22;7150;53.514;9.988;2023-06-22T07:59:25;27.00;78.90
14140;DHT22;7150;53.514;9.988;2023-06-22T08:01:51;27.00;78.60
14140;DHT22;7150;53.514;9.988;2023-06-22T08:04:16;27.10;78.50
14140;DHT22;7150;53.514;9.988;2023-06-22T08:06:42;27.10;78.30
14140;DHT22;7150;53.514;9.988;2023-06-22T08:09:09;27.10;78.00
14140;DHT22;7150;53.514;9.988;2023-06-22T08:11:34;27.20;77.70
14140;DHT22;7150;53.514;9.988;2023-06-22T08:13:59;27.20;77.50
14140;DHT22;7150;53.514;9.988;2023-06-22T08:16:25;27.20;77.10
14140;DHT22;7150;53.514;9.988;2023-06-22T08:18:51;27.20;77.00
14140;DHT22;7150;53.514;9.988;2023-06-22T08:21:16;27.30;76.90
14140;DHT22;7150;53.514;9.988;2023-06-22T08:23:42;27.30;76.60
14140;DHT22;7150;53.514;9.988;2023-06-22T08:26:07;27.30;76.50
14140;DHT22;7150;53.514;9.988;2023-06-22T08:28:33;27.30;76.30
14140;DHT22;7150;53.514;9.988;2023-06-22T08:30:59;27.40;76.30
14140;DHT22;7150;53.514;9.988;2023-06-22T08:33:25;27.40;76.00
14140;DHT22;7150;53.514;9.988;2023-06-22T08:35:54;27.50;75.70
14140;DHT22;7150;53.514;9.988;2023-06-22T08:38:20;27.50;75.50
14140;DHT22;7150;53.514;9.988;2023-06-22T08:40:45;27.50;75.40
14140;DHT22;7150;53.514;9.988;2023-06-22T08:43:11;27.60;75.30
14140;DHT22;7150;53.514;9.988;2023-06-22T08:45:36;27.50;75.10
14140;DHT22;7150;53.514;9.988;2023-06-22T08:48:02;27.50;75.00
14140;DHT22;7150;53.514;9.988;2023-06-22T08:50:28;27.50;74.70
14140;DHT22;7150;53.514;9.988;2023-06-22T08:52:53;27.60;74.60
14140;DHT22;7150;53.514;9.988;2023-06-22T08:55:19;27.60;74.30
14140;DHT22;7150;53.514;9.988;2023-06-22T08:57:44;27.60;74.00
14140;DHT22;7150;53.514;9.988;2023-06-22T09:00:10;27.60;73.90
14140;DHT22;7150;53.514;9.988;2023-06-22T09:02:43;27.70;73.60
14140;DHT22;7150;53.514;9.988;2023-06-22T09:05:09;27.70;73.30
14140;DHT22;7150;53.514;9.988;2023-06-22T09:07:35;27.70;72.90
14140;DHT22;7150;53.514;9.988;2023-06-22T09:10:00;27.70;73.30
14140;DHT22;7150;53.514;9.988;2023-06-22T09:12:26;27.70;72.60
14140;DHT22;7150;53.514;9.988;2023-06-22T09:14:53;27.80;72.60
14140;DHT22;7150;53.514;9.988;2023-06-22T09:17:18;27.80;72.40
14140;DHT22;7150;53.514;9.988;2023-06-22T09:19:44;27.80;72.20
14140;DHT22;7150;53.514;9.988;2023-06-22T09:22:09;27.90;72.20
14140;DHT22;7150;53.514;9.988;2023-06-22T09:24:35;27.90;72.10
14140;DHT22;7150;53.514;9.988;2023-06-22T09:27:00;27.90;72.00
14140;DHT22;7150;53.514;9.988;2023-06-22T09:29:26;28.00;72.00
14140;DHT22;7150;53.514;9.988;2023-06-22T09:31:51;27.90;71.70
14140;DHT22;7150;53.514;9.988;2023-06-22T09:34:19;28.00;71.70
14140;DHT22;7150;53.514;9.988;2023-06-22T09:36:46;28.00;71.70
14140;DHT22;7150;53.514;9.988;2023-06-22T09:39:11;28.00;71.70
14140;DHT22;7150;53.514;9.988;2023-06-22T09:41:37;28.00;71.70
14140;DHT22;7150;53.514;9.988;2023-06-22T09:44:02;28.10;71.90
14140;DHT22;7150;53.514;9.988;2023-06-22T09:46:28;28.10;72.00
14140;DHT22;7150;53.514;9.988;2023-06-22T09:48:54;28.20;72.00
14140;DHT22;7150;53.514;9.988;2023-06-22T09:51:19;28.20;72.00
14140;DHT22;7150;53.514;9.988;2023-06-22T09:53:47;28.30;72.00
14140;DHT22;7150;53.514;9.988;2023-06-22T09:56:12;28.30;72.00
14140;DHT22;7150;53.514;9.988;2023-06-22T09:58:41;28.30;71.90
14140;DHT22;7150;53.514;9.988;2023-06-22T10:01:07;28.30;72.00
14140;DHT22;7150;53.514;9.988;2023-06-22T10:03:33;28.30;72.20
14140;DHT22;7150;53.514;9.988;2023-06-22T10:05:58;28.40;72.30
14140;DHT22;7150;53.514;9.988;2023-06-22T10:08:24;28.40;72.40
14140;DHT22;7150;53.514;9.988;2023-06-22T10:10:52;28.40;72.20
14140;DHT22;7150;53.514;9.988;2023-06-22T10:13:18;28.40;72.00
14140;DHT22;7150;53.514;9.988;2023-06-22T10:15:44;28.40;72.00
14140;DHT22;7150;53.514;9.988;2023-06-22T10:18:15;28.50;72.10
14140;DHT22;7150;53.514;9.988;2023-06-22T10:20:41;28.50;72.10
14140;DHT22;7150;53.514;9.988;2023-06-22T10:23:06;28.50;72.00
14140;DHT22;7150;53.514;9.988;2023-06-22T10:25:32;28.50;72.00
14140;DHT22;7150;53.514;9.988;2023-06-22T10:27:57;28.60;72.20
14140;DHT22;7150;53.514;9.988;2023-06-22T10:30:23;28.60;72.20
14140;DHT22;7150;53.514;9.988;2023-06-22T10:32:49;28.70;72.30
14140;DHT22;7150;53.514;9.988;2023-06-22T10:35:14;28.70;72.10
14140;DHT22;7150;53.514;9.988;2023-06-22T10:37:42;28.70;71.90
14140;DHT22;7150;53.514;9.988;2023-06-22T10:40:09;28.70;71.70
14140;DHT22;7150;53.514;9.988;2023-06-22T10:42:34;28.70;71.40
14140;DHT22;7150;53.514;9.988;2023-06-22T10:45:00;28.70;71.40
14140;DHT22;7150;53.514;9.988;2023-06-22T10:47:25;28.80;71.50
14140;DHT22;7150;53.514;9.988;2023-06-22T10:49:51;28.80;71.50
14140;DHT22;7150;53.514;9.988;2023-06-22T10:52:16;28.80;71.50
14140;DHT22;7150;53.514;9.988;2023-06-22T10:54:42;28.90;71.60
14140;DHT22;7150;53.514;9.988;2023-06-22T10:57:07;28.90;71.50
14140;DHT22;7150;53.514;9.988;2023-06-22T10:59:33;28.90;71.50
14140;DHT22;7150;53.514;9.988;2023-06-22T11:01:59;29.00;71.50
14140;DHT22;7150;53.514;9.988;2023-06-22T11:04:24;28.90;71.00
14140;DHT22;7150;53.514;9.988;2023-06-22T11:06:50;29.00;71.10
14140;DHT22;7150;53.514;9.988;2023-06-22T11:09:16;29.10;71.30
14140;DHT22;7150;53.514;9.988;2023-06-22T11:11:46;29.10;70.60
14140;DHT22;7150;53.514;9.988;2023-06-22T11:14:11;29.10;71.00
14140;DHT22;7150;53.514;9.988;2023-06-22T11:16:37;29.10;71.40
14140;DHT22;7150;53.514;9.988;2023-06-22T11:19:05;29.20;71.80
14140;DHT22;7150;53.514;9.988;2023-06-22T11:21:31;29.20;72.00
14140;DHT22;7150;53.514;9.988;2023-06-22T11:23:58;29.30;71.90
14140;DHT22;7150;53.514;9.988;2023-06-22T11:26:24;29.40;71.90
14140;DHT22;7150;53.514;9.988;2023-06-22T11:28:49;29.40;71.60
14140;DHT22;7150;53.514;9.988;2023-06-22T11:31:15;29.40;71.50
14140;DHT22;7150;53.514;9.988;2023-06-22T11:33:40;29.40;71.10
14140;DHT22;7150;53.514;9.988;2023-06-22T11:36:06;29.60;71.20
14140;DHT22;7150;53.514;9.988;2023-06-22T11:38:31;29.60;71.20
14140;DHT22;7150;53.514;9.988;2023-06-22T11:41:00;29.70;71.20
14140;DHT22;7150;53.514;9.988;2023-06-22T11:43:25;29.60;71.00
14140;DHT22;7150;53.514;9.988;2023-06-22T11:45:51;29.60;71.00
14140;DHT22;7150;53.514;9.988;2023-06-22T11:48:17;29.60;71.10
14140;DHT22;7150;53.514;9.988;2023-06-22T11:50:42;29.60;71.20
14140;DHT22;7150;53.514;9.988;2023-06-22T11:53:08;29.60;71.20
14140;DHT22;7150;53.514;9.988;2023-06-22T11:55:33;29.70;71.50
14140;DHT22;7150;53.514;9.988;2023-06-22T11:57:58;29.70;71.50
14140;DHT22;7150;53.514;9.988;2023-06-22T12:00:26;29.70;71.60
14140;DHT22;7150;53.514;9.988;2023-06-22T12:02:52;29.70;71.80
14140;DHT22;7150;53.514;9.988;2023-06-22T12:05:21;29.70;71.80
14140;DHT22;7150;53.514;9.988;2023-06-22T12:07:47;29.70;71.70
14140;DHT22;7150;53.514;9.988;2023-06-22T12:10:13;29.80;71.90
14140;DHT22;7150;53.514;9.988;2023-06-22T12:12:39;29.80;71.80
14140;DHT22;7150;53.514;9.988;2023-06-22T12:15:04;29.90;71.80
14140;DHT22;7150;53.514;9.988;2023-06-22T12:17:31;29.90;71.40
14140;DHT22;7150;53.514;9.988;2023-06-22T12:19:56;29.90;71.40
14140;DHT22;7150;53.514;9.988;2023-06-22T12:22:22;30.00;71.00
14140;DHT22;7150;53.514;9.988;2023-06-22T12:24:47;30.00;70.50
14140;DHT22;7150;53.514;9.988;2023-06-22T12:27:13;30.00;70.50
14140;DHT22;7150;53.514;9.988;2023-06-22T12:29:41;30.00;70.70
14140;DHT22;7150;53.514;9.988;2023-06-22T12:32:07;30.00;71.10
14140;DHT22;7150;53.514;9.988;2023-06-22T12:34:32;30.00;71.40
14140;DHT22;7150;53.514;9.988;2023-06-22T12:36:58;30.00;71.70
14140;DHT22;7150;53.514;9.988;2023-06-22T12:39:24;30.00;71.70
14140;DHT22;7150;53.514;9.988;2023-06-22T12:41:49;30.00;71.70
14140;DHT22;7150;53.514;9.988;2023-06-22T12:44:14;30.10;71.60
14140;DHT22;7150;53.514;9.988;2023-06-22T12:46:40;30.20;71.50
14140;DHT22;7150;53.514;9.988;2023-06-22T12:49:05;30.20;71.40
14140;DHT22;7150;53.514;9.988;2023-06-22T12:51:31;30.20;71.30
14140;DHT22;7150;53.514;9.988;2023-06-22T12:53:57;30.20;71.40
14140;DHT22;7150;53.514;9.988;2023-06-22T12:56:22;30.20;71.50
14140;DHT22;7150;53.514;9.988;2023-06-22T12:58:48;30.20;71.10
14140;DHT22;7150;53.514;9.988;2023-06-22T13:01:14;30.20;70.30
14140;DHT22;7150;53.514;9.988;2023-06-22T13:03:40;30.20;70.40
14140;DHT22;7150;53.514;9.988;2023-06-22T13:06:05;30.30;70.50
14140;DHT22;7150;53.514;9.988;2023-06-22T13:08:30;30.20;70.60
14140;DHT22;7150;53.514;9.988;2023-06-22T13:10:56;30.20;70.70
14140;DHT22;7150;53.514;9.988;2023-06-22T13:13:25;30.20;70.80
14140;DHT22;7150;53.514;9.988;2023-06-22T13:15:52;30.20;70.70
14140;DHT22;7150;53.514;9.988;2023-06-22T13:18:19;30.20;70.70
14140;DHT22;7150;53.514;9.988;2023-06-22T13:20:45;30.20;70.60
14140;DHT22;7150;53.514;9.988;2023-06-22T13:23:11;30.20;70.80
14140;DHT22;7150;53.514;9.988;2023-06-22T13:25:36;30.20;70.80
14140;DHT22;7150;53.514;9.988;2023-06-22T13:28:02;30.20;70.80
14140;DHT22;7150;53.514;9.988;2023-06-22T13:30:27;30.20;70.90
14140;DHT22;7150;53.514;9.988;2023-06-22T13:32:53;30.20;71.10
14140;DHT22;7150;53.514;9.988;2023-06-22T13:35:18;30.20;71.40
14140;DHT22;7150;53.514;9.988;2023-06-22T13:37:44;30.10;71.30
14140;DHT22;7150;53.514;9.988;2023-06-22T13:40:09;30.10;71.30
14140;DHT22;7150;53.514;9.988;2023-06-22T13:42:35;30.10;71.30
14140;DHT22;7150;53.514;9.988;2023-06-22T13:45:01;30.00;71.20
14140;DHT22;7150;53.514;9.988;2023-06-22T13:47:27;30.10;71.20
14140;DHT22;7150;53.514;9.988;2023-06-22T13:49:52;30.00;71.20
14140;DHT22;7150;53.514;9.988;2023-06-22T13:52:18;30.00;71.10
14140;DHT22;7150;53.514;9.988;2023-06-22T13:54:43;30.10;71.10
14140;DHT22;7150;53.514;9.988;2023-06-22T13:57:09;30.10;71.10
14140;DHT22;7150;53.514;9.988;2023-06-22T13:59:34;30.10;71.20
14140;DHT22;7150;53.514;9.988;2023-06-22T14:02:00;30.10;71.30
14140;DHT22;7150;53.514;9.988;2023-06-22T14:04:25;30.20;71.20
14140;DHT22;7150;53.514;9.988;2023-06-22T14:06:51;30.20;71.30
14140;DHT22;7150;53.514;9.988;2023-06-22T14:09:17;30.20;71.10
14140;DHT22;7150;53.514;9.988;2023-06-22T14:11:42;30.10;71.20
14140;DHT22;7150;53.514;9.988;2023-06-22T14:14:08;30.10;71.50
14140;DHT22;7150;53.514;9.988;2023-06-22T14:16:33;30.00;71.60
14140;DHT22;7150;53.514;9.988;2023-06-22T14:18:59;30.00;72.00
14140;DHT22;7150;53.514;9.988;2023-06-22T14:21:26;30.00;72.10
14140;DHT22;7150;53.514;9.988;2023-06-22T14:23:51;30.00;72.10
14140;DHT22;7150;53.514;9.988;2023-06-22T14:26:17;29.90;72.30
14140;DHT22;7150;53.514;9.988;2023-06-22T14:28:46;29.90;72.60
14140;DHT22;7150;53.514;9.988;2023-06-22T14:31:18;29.80;73.30
14140;DHT22;7150;53.514;9.988;2023-06-22T14:33:48;29.70;73.80
14140;DHT22;7150;53.514;9.988;2023-06-22T14:36:14;29.70;74.50
14140;DHT22;7150;53.514;9.988;2023-06-22T14:38:40;29.60;75.10
14140;DHT22;7150;53.514;9.988;2023-06-22T14:41:05;29.60;76.10
14140;DHT22;7150;53.514;9.988;2023-06-22T14:43:31;29.60;77.00
14140;DHT22;7150;53.514;9.988;2023-06-22T14:45:56;29.50;77.60
14140;DHT22;7150;53.514;9.988;2023-06-22T14:48:22;29.40;78.30
14140;DHT22;7150;53.514;9.988;2023-06-22T14:50:48;29.40;79.10
14140;DHT22;7150;53.514;9.988;2023-06-22T14:53:13;29.30;79.60
14140;DHT22;7150;53.514;9.988;2023-06-22T14:55:40;29.30;80.10
14140;DHT22;7150;53.514;9.988;2023-06-22T14:58:05;29.30;80.60
14140;DHT22;7150;53.514;9.988;2023-06-22T15:00:31;29.30;80.90
14140;DHT22;7150;53.514;9.988;2023-06-22T15:02:56;29.20;80.90
14140;DHT22;7150;53.514;9.988;2023-06-22T15:05:22;29.20;81.00
14140;DHT22;7150;53.514;9.988;2023-06-22T15:07:49;29.20;81.10
14140;DHT22;7150;53.514;9.988;2023-06-22T15:10:15;29.20;81.30
14140;DHT22;7150;53.514;9.988;2023-06-22T15:12:40;29.20;81.30
14140;DHT22;7150;53.514;9.988;2023-06-22T15:15:06;29.10;81.40
14140;DHT22;7150;53.514;9.988;2023-06-22T15:17:32;29.20;81.50
14140;DHT22;7150;53.514;9.988;2023-06-22T15:19:58;29.10;81.50
14140;DHT22;7150;53.514;9.988;2023-06-22T15:22:24;29.10;81.50
14140;DHT22;7150;53.514;9.988;2023-06-22T15:24:49;29.10;81.90
14140;DHT22;7150;53.514;9.988;2023-06-22T15:27:18;29.10;81.80
14140;DHT22;7150;53.514;9.988;2023-06-22T15:29:44;29.10;81.80
14140;DHT22;7150;53.514;9.988;2023-06-22T15:32:09;29.10;81.80
14140;DHT22;7150;53.514;9.988;2023-06-22T15:34:35;29.10;81.30
14140;DHT22;7150;53.514;9.988;2023-06-22T15:37:00;29.10;81.30
14140;DHT22;7150;53.514;9.988;2023-06-22T15:39:26;29.00;80.90
14140;DHT22;7150;53.514;9.988;2023-06-22T15:41:52;29.00;80.90
14140;DHT22;7150;53.514;9.988;2023-06-22T15:44:24;29.00;80.90
14140;DHT22;7150;53.514;9.988;2023-06-22T15:46:50;29.00;80.70
14140;DHT22;7150;53.514;9.988;2023-06-22T15:49:16;29.00;80.40
14140;DHT22;7150;53.514;9.988;2023-06-22T15:51:43;29.00;79.90